Time;durP1;ratioP1;P1;durP2;ratioP2;P2;SDS_P1;SDS_P2;PMS_P1;PMS_P2;Temp;Humidity;BMP_temperature;BMP_pressure;BME280_temperature;BME280_humidity;BME280_pressure;Samples;Min_cycle;Max_cycle;Signal;HPM_P1;HPM_P2
2023/03/01 01:34:49;;;;;;;144.95;63.97;;;-3.60;99.90;;;;;;2602622;54;20030;31
2023/03/01 01:37:30;;;;;;;158.27;67.55;;;-3.60;99.90;;;;;;2603434;54;20120;31
2023/03/01 01:46:07;;;;;;;132.43;61.78;;;-3.70;99.90;;;;;;2720049;39;21913;31
2023/03/01 01:48:56;;;;;;;135.15;62.20;;;-3.70;99.90;;;;;;2602642;54;20026;31
2023/03/01 01:51:42;;;;;;;142.10;64.15;;;-3.70;99.90;;;;;;2603053;54;20810;31
2023/03/01 01:57:18;;;;;;;128.85;57.15;;;-3.70;99.90;;;;;;2602778;54;20838;31
2023/03/01 02:40:50;;;;;;;123.63;58.05;;;-4.10;99.90;;;;;;2603039;54;22261;31
2023/03/01 02:43:42;;;;;;;116.50;56.30;;;-4.20;99.90;;;;;;2622058;46;20042;31
2023/03/01 02:46:30;;;;;;;114.57;55.80;;;-4.20;99.90;;;;;;2603289;54;20027;31
2023/03/01 03:14:24;;;;;;;109.75;52.03;;;-4.40;99.90;;;;;;2611340;54;21615;31
2023/03/01 03:20:18;;;;;;;110.30;52.05;;;-4.40;99.90;;;;;;2601518;54;20860;31
2023/03/01 03:32:22;;;;;;;149.38;67.85;;;-4.50;99.90;;;;;;2610470;54;20842;31
2023/03/01 03:38:06;;;;;;;124.85;55.58;;;-4.50;99.90;;;;;;2602858;54;20057;31
2023/03/01 03:43:51;;;;;;;132.23;59.23;;;-4.50;99.90;;;;;;2602833;54;20026;31
2023/03/01 03:46:32;;;;;;;128.75;59.97;;;-4.60;99.90;;;;;;2602959;54;20037;31
2023/03/01 03:49:15;;;;;;;126.82;56.13;;;-4.60;99.90;;;;;;2603177;54;20846;31
2023/03/01 03:51:55;;;;;;;122.95;55.15;;;-4.60;99.90;;;;;;2603957;54;20026;31
2023/03/01 03:54:34;;;;;;;139.65;65.35;;;-4.60;99.90;;;;;;2603863;54;20026;31
2023/03/01 04:39:58;;;;;;;113.45;52.30;;;-5.00;99.90;;;;;;2612381;54;20023;31
2023/03/01 05:03:55;;;;;;;114.63;58.33;;;-5.20;99.90;;;;;;2603460;54;20034;31
2023/03/01 05:12:46;;;;;;;128.38;58.75;;;-5.20;99.90;;;;;;2603143;54;20734;31
2023/03/01 05:15:25;;;;;;;112.75;55.08;;;-5.30;99.90;;;;;;2621048;46;20040;31
2023/03/01 05:18:03;;;;;;;117.50;57.92;;;-5.30;99.90;;;;;;2603385;54;20131;31
2023/03/01 05:20:44;;;;;;;125.13;61.55;;;-5.30;99.90;;;;;;2603480;54;20857;31
2023/03/01 05:25:57;;;;;;;103.45;50.05;;;-5.30;99.90;;;;;;2603477;54;20065;31
2023/03/01 05:28:33;;;;;;;103.60;50.35;;;-5.30;99.90;;;;;;2603355;54;20270;31
2023/03/01 05:31:14;;;;;;;111.75;55.05;;;-5.30;99.90;;;;;;2603612;54;20026;31
2023/03/01 05:33:55;;;;;;;120.63;58.15;;;-5.40;99.90;;;;;;2603436;54;20026;31
2023/03/01 05:36:34;;;;;;;111.13;57.08;;;-5.30;99.90;;;;;;2603322;54;20042;31
2023/03/01 05:39:15;;;;;;;114.18;54.97;;;-5.30;99.90;;;;;;2603201;54;20841;31
2023/03/01 05:41:55;;;;;;;102.00;46.58;;;-5.40;99.90;;;;;;2603423;54;20031;31
2023/03/01 05:44:33;;;;;;;103.53;49.75;;;-5.40;99.90;;;;;;2603652;54;20085;31
2023/03/01 05:50:10;;;;;;;113.53;55.33;;;-5.30;99.90;;;;;;2602647;54;20030;31
2023/03/01 05:52:49;;;;;;;113.80;55.75;;;-5.30;99.90;;;;;;2602759;54;20763;31
2023/03/01 05:55:25;;;;;;;109.57;54.83;;;-5.40;99.90;;;;;;2602540;54;20084;31
2023/03/01 05:58:05;;;;;;;110.90;53.28;;;-5.40;99.90;;;;;;2603238;54;20034;31
2023/03/01 06:00:44;;;;;;;98.80;48.05;;;-5.30;99.90;;;;;;2603165;54;20920;31
2023/03/01 06:03:24;;;;;;;115.35;57.70;;;-5.20;99.90;;;;;;2603360;54;20030;31
2023/03/01 06:06:06;;;;;;;108.40;51.78;;;-5.10;99.90;;;;;;2603261;54;20748;31
2023/03/01 06:08:49;;;;;;;94.45;46.15;;;-4.80;99.90;;;;;;2603399;54;20875;31
2023/03/01 06:11:25;;;;;;;117.93;58.17;;;-4.50;99.90;;;;;;2603466;54;20033;31
2023/03/01 06:14:06;;;;;;;120.18;58.20;;;-4.10;99.90;;;;;;2621715;46;21099;31
2023/03/01 06:16:42;;;;;;;119.65;59.40;;;-3.70;99.90;;;;;;2603359;54;19942;31
2023/03/01 06:19:20;;;;;;;130.27;64.47;;;-3.40;99.90;;;;;;2603280;54;20065;31
2023/03/01 06:21:58;;;;;;;132.82;65.53;;;-3.00;99.90;;;;;;2603299;54;20030;31
2023/03/01 06:24:39;;;;;;;120.82;60.22;;;-2.70;99.90;;;;;;2621562;46;20114;31
2023/03/01 06:30:19;;;;;;;120.53;61.83;;;-2.00;99.90;;;;;;2603322;54;20027;31
2023/03/01 06:33:00;;;;;;;121.67;61.67;;;-1.70;99.90;;;;;;2603021;54;20897;31
2023/03/01 06:35:40;;;;;;;113.50;60.53;;;-1.40;99.90;;;;;;2603430;54;20030;31
2023/03/01 06:38:35;;;;;;;113.57;56.70;;;-1.10;99.90;;;;;;2602674;54;20053;31
2023/03/01 06:41:31;;;;;;;104.57;55.55;;;-0.90;99.90;;;;;;2603431;54;20030;31
2023/03/01 06:44:11;;;;;;;105.75;54.70;;;-0.50;99.90;;;;;;2603452;54;20022;31
2023/03/01 06:46:48;;;;;;;98.07;53.10;;;-0.20;99.90;;;;;;2602503;54;20910;31
2023/03/01 06:49:23;;;;;;;91.13;52.23;;;0.20;99.90;;;;;;2603295;54;20038;31
2023/03/01 06:52:02;;;;;;;101.25;52.53;;;0.60;99.90;;;;;;2603335;54;20031;31
2023/03/01 06:54:40;;;;;;;93.70;52.35;;;1.00;99.90;;;;;;2603214;54;21380;31
2023/03/01 06:57:14;;;;;;;92.75;49.85;;;1.30;99.90;;;;;;2602957;54;20030;31
2023/03/01 06:59:59;;;;;;;87.70;48.13;;;1.70;99.90;;;;;;2603079;54;20791;31
2023/03/01 07:02:35;;;;;;;87.90;47.15;;;2.10;99.90;;;;;;2602351;54;20874;31
2023/03/01 07:05:17;;;;;;;89.47;48.10;;;2.30;99.90;;;;;;2603089;54;20085;31
2023/03/01 07:08:00;;;;;;;85.90;46.33;;;2.80;99.90;;;;;;2602351;54;20919;31
2023/03/01 07:10:39;;;;;;;93.68;52.47;;;3.40;99.90;;;;;;2603276;54;20249;31
2023/03/01 07:13:16;;;;;;;91.80;51.30;;;3.90;99.90;;;;;;2621234;46;20022;31
2023/03/01 07:15:56;;;;;;;125.72;67.70;;;4.20;99.90;;;;;;2603341;54;20056;31
2023/03/01 07:18:37;;;;;;;120.70;64.15;;;4.60;99.90;;;;;;2621262;46;20117;31
2023/03/01 07:21:16;;;;;;;89.15;52.30;;;4.90;99.90;;;;;;2603031;54;20051;31
2023/03/01 07:26:29;;;;;;;80.88;47.75;;;5.10;99.90;;;;;;2602932;54;20085;31
2023/03/01 07:29:08;;;;;;;82.05;48.58;;;5.40;99.90;;;;;;2602440;54;20034;31
2023/03/01 07:31:59;;;;;;;81.30;48.58;;;5.60;99.90;;;;;;2602848;54;20037;31
2023/03/01 07:34:34;;;;;;;80.20;46.95;;;5.70;99.90;;;;;;2602930;54;20027;31
2023/03/01 07:43:02;;;;;;;71.80;42.33;;;6.70;99.90;;;;;;2602627;54;20096;31
2023/03/01 07:45:49;;;;;;;71.90;42.60;;;6.90;99.90;;;;;;2603065;54;20034;31
2023/03/01 07:51:26;;;;;;;81.55;45.90;;;7.20;99.90;;;;;;2602094;54;19938;31
2023/03/01 07:57:10;;;;;;;80.50;49.20;;;7.60;99.90;;;;;;2602179;54;20883;31
2023/03/01 08:00:02;;;;;;;76.60;46.50;;;7.60;99.90;;;;;;2603030;54;20059;31
2023/03/01 08:05:39;;;;;;;75.18;44.20;;;7.60;99.90;;;;;;2603075;54;20026;31
2023/03/01 08:08:31;;;;;;;75.47;44.35;;;7.60;99.90;;;;;;2621487;47;20029;31
2023/03/01 08:11:14;;;;;;;67.53;42.15;;;7.80;99.90;;;;;;2720371;39;21027;31
2023/03/01 08:19:27;;;;;;;73.15;47.15;;;8.60;99.90;;;;;;2603557;54;20872;31
2023/03/01 08:22:07;;;;;;;90.72;53.38;;;8.80;99.90;;;;;;2603727;54;20847;31
2023/03/01 08:24:46;;;;;;;99.00;63.17;;;9.00;99.90;;;;;;2603610;54;20863;31
2023/03/01 08:27:24;;;;;;;89.70;57.10;;;9.20;99.90;;;;;;2603904;54;20030;31
2023/03/01 08:39:07;;;;;;;82.55;49.03;;;9.40;99.90;;;;;;2603899;54;20037;31
2023/03/01 08:41:50;;;;;;;70.30;44.67;;;9.30;99.90;;;;;;2603160;54;20608;31
2023/03/01 08:44:27;;;;;;;65.57;39.90;;;9.20;99.90;;;;;;2602855;54;21095;31
2023/03/01 08:47:07;;;;;;;56.63;36.37;;;9.20;99.90;;;;;;2603727;54;20676;31
2023/03/01 08:49:45;;;;;;;58.42;36.78;;;9.40;99.90;;;;;;2603651;54;20254;31
2023/03/01 08:52:31;;;;;;;;;;;9.40;99.90;;;;;;2622321;46;20029;31
2023/03/01 08:55:14;;;;;;;54.13;36.33;;;9.30;99.90;;;;;;2602921;54;19943;31
2023/03/01 08:57:58;;;;;;;49.63;33.85;;;9.40;99.90;;;;;;2602960;54;20030;31
2023/03/01 09:00:36;;;;;;;39.92;26.63;;;9.40;99.90;;;;;;2603094;54;20022;31
2023/03/01 09:03:18;;;;;;;30.05;21.60;;;9.50;99.90;;;;;;2603483;54;20837;31
2023/03/01 09:05:55;;;;;;;26.88;18.08;;;9.50;99.90;;;;;;2603942;54;20816;31
2023/03/01 09:08:31;;;;;;;31.10;21.10;;;9.80;99.90;;;;;;2622180;46;20030;31
2023/03/01 09:11:06;;;;;;;24.90;15.75;;;10.00;99.90;;;;;;2622081;46;20034;31
2023/03/01 09:13:49;;;;;;;25.75;18.20;;;10.20;99.90;;;;;;2603549;54;20758;31
2023/03/01 09:16:40;;;;;;;30.57;19.90;;;10.50;99.90;;;;;;2603597;54;20034;31
2023/03/01 09:19:17;;;;;;;22.02;16.42;;;10.50;98.80;;;;;;2622161;46;20357;31
2023/03/01 09:22:07;;;;;;;25.10;16.85;;;10.40;97.30;;;;;;2603714;54;20053;31
2023/03/01 09:24:43;;;;;;;26.38;16.98;;;10.40;96.90;;;;;;2603527;54;20767;31
2023/03/01 09:27:19;;;;;;;27.02;18.23;;;10.20;96.60;;;;;;2622260;46;20042;31
2023/03/01 09:29:59;;;;;;;26.27;19.23;;;10.30;96.30;;;;;;2603406;54;20085;31
2023/03/01 09:32:37;;;;;;;27.07;18.93;;;10.30;97.00;;;;;;2603508;54;20045;31
2023/03/01 09:35:11;;;;;;;26.30;18.75;;;10.40;97.10;;;;;;2603400;54;20239;31
2023/03/01 09:37:46;;;;;;;25.75;18.25;;;10.40;96.70;;;;;;2603661;54;20780;31
2023/03/01 09:40:24;;;;;;;22.48;17.20;;;10.40;96.00;;;;;;2603768;54;20157;31
2023/03/01 09:45:38;;;;;;;26.48;19.13;;;10.30;95.00;;;;;;2603612;54;20872;31
2023/03/01 09:48:16;;;;;;;23.63;17.35;;;10.20;94.70;;;;;;2603489;54;20089;31
2023/03/01 09:50:51;;;;;;;24.05;17.95;;;10.30;94.60;;;;;;2702444;39;21038;31
2023/03/01 09:53:28;;;;;;;;;;;10.50;95.20;;;;;;2603591;54;20033;31
2023/03/01 09:56:05;;;;;;;24.30;17.65;;;10.50;94.30;;;;;;2603443;54;19934;31
2023/03/01 09:58:44;;;;;;;26.33;17.08;;;10.50;94.10;;;;;;2603452;54;20037;31
2023/03/01 10:01:34;;;;;;;23.63;16.75;;;10.40;92.40;;;;;;2621582;46;20049;31
2023/03/01 10:04:16;;;;;;;26.08;17.48;;;10.30;92.40;;;;;;2603343;54;20777;31
2023/03/01 10:06:59;;;;;;;23.63;16.83;;;10.20;92.50;;;;;;2621683;46;20081;31
2023/03/01 10:09:35;;;;;;;24.45;17.70;;;10.30;93.80;;;;;;2621923;46;20026;31
2023/03/01 10:12:13;;;;;;;28.08;17.52;;;10.30;94.00;;;;;;2621693;46;20108;31
2023/03/01 10:14:54;;;;;;;27.45;17.23;;;10.40;94.10;;;;;;2603593;54;20034;31
2023/03/01 10:17:36;;;;;;;23.83;16.65;;;10.60;94.60;;;;;;2603310;54;20894;31
2023/03/01 10:20:33;;;;;;;33.20;21.33;;;10.60;93.30;;;;;;2603349;54;20030;31
2023/03/01 10:23:08;;;;;;;28.33;21.03;;;10.50;94.10;;;;;;2603350;54;20034;31
2023/03/01 10:25:47;;;;;;;;;;;10.50;94.00;;;;;;2622179;46;20851;31
2023/03/01 10:28:28;;;;;;;30.67;19.77;;;10.40;94.50;;;;;;2602536;54;19943;31
2023/03/01 10:31:07;;;;;;;30.05;20.55;;;10.40;94.40;;;;;;2603401;54;19961;31
2023/03/01 10:33:47;;;;;;;27.20;18.80;;;10.20;94.40;;;;;;2603221;54;20045;31
2023/03/01 10:36:25;;;;;;;26.85;18.90;;;10.20;94.50;;;;;;2603287;54;20052;31
2023/03/01 10:39:03;;;;;;;33.15;22.35;;;10.10;93.90;;;;;;2603186;54;20866;31
2023/03/01 10:41:38;;;;;;;32.05;22.33;;;10.20;94.30;;;;;;2621640;46;20026;31
2023/03/01 10:44:25;;;;;;;23.25;16.00;;;10.30;93.50;;;;;;2602525;54;20856;31
2023/03/01 10:47:03;;;;;;;27.92;19.65;;;10.40;94.10;;;;;;2603334;54;20586;31
2023/03/01 10:49:43;;;;;;;27.95;19.00;;;10.30;93.20;;;;;;2621878;46;19934;31
2023/03/01 10:52:25;;;;;;;21.42;16.73;;;10.30;93.60;;;;;;2621418;46;20041;31
2023/03/01 10:55:01;;;;;;;27.98;17.40;;;10.20;93.60;;;;;;2621989;46;20085;31
2023/03/01 10:57:40;;;;;;;;;;;10.10;92.90;;;;;;2603468;54;20030;31
2023/03/01 11:00:24;;;;;;;21.20;15.90;;;10.20;92.80;;;;;;2621388;46;19950;31
2023/03/01 11:05:37;;;;;;;23.65;15.55;;;10.30;93.20;;;;;;2603356;54;21638;31
2023/03/01 11:08:15;;;;;;;24.73;17.45;;;10.10;92.70;;;;;;2603428;54;20033;31
2023/03/01 11:10:54;;;;;;;23.67;16.80;;;10.10;92.90;;;;;;2602574;54;20851;31
2023/03/01 11:13:30;;;;;;;24.33;16.38;;;9.90;92.10;;;;;;2602707;54;20030;31
2023/03/01 11:16:10;;;;;;;25.70;15.43;;;9.70;93.10;;;;;;2621889;46;20112;31
2023/03/01 11:18:46;;;;;;;23.80;16.00;;;9.70;93.80;;;;;;2603168;54;21310;31
2023/03/01 11:21:28;;;;;;;21.60;15.80;;;9.70;93.10;;;;;;2621566;46;20072;31
2023/03/01 11:24:05;;;;;;;23.87;16.50;;;9.60;93.60;;;;;;2602922;54;20065;31
2023/03/01 11:26:46;;;;;;;23.60;17.20;;;9.50;93.20;;;;;;2603187;54;20031;31
2023/03/01 11:29:28;;;;;;;22.67;16.50;;;9.30;93.20;;;;;;2603440;54;20030;31
2023/03/01 11:32:19;;;;;;;23.77;17.92;;;9.10;94.40;;;;;;2603152;54;19996;31
2023/03/01 11:34:57;;;;;;;20.73;14.60;;;9.10;94.60;;;;;;2603104;54;20112;31
2023/03/01 11:37:39;;;;;;;22.65;15.20;;;9.10;92.70;;;;;;2603165;54;20026;31
2023/03/01 11:43:09;;;;;;;17.90;12.20;;;9.00;90.90;;;;;;2603229;54;20104;31
2023/03/01 11:45:53;;;;;;;16.90;10.88;;;8.70;89.40;;;;;;2621693;47;20929;31
2023/03/01 11:48:50;;;;;;;16.05;11.32;;;8.70;90.70;;;;;;2701659;39;20475;31
2023/03/01 11:51:29;;;;;;;16.05;11.10;;;8.70;88.30;;;;;;2603237;54;20034;31
2023/03/01 11:54:13;;;;;;;15.05;10.60;;;8.60;86.90;;;;;;2622106;46;20054;31
2023/03/01 11:56:50;;;;;;;16.55;10.45;;;8.50;88.20;;;;;;2622509;46;20022;31
2023/03/01 11:59:37;;;;;;;22.30;9.85;;;8.30;87.90;;;;;;2622218;46;20053;31
2023/03/01 12:02:35;;;;;;;11.70;8.10;;;8.10;86.60;;;;;;2603983;54;20023;31
2023/03/01 12:05:16;;;;;;;12.50;7.40;;;8.00;86.40;;;;;;2603730;54;20565;31
2023/03/01 12:07:56;;;;;;;9.63;6.15;;;8.00;85.50;;;;;;2603915;54;20022;31
2023/03/01 12:10:36;;;;;;;15.00;8.15;;;7.90;82.40;;;;;;2603794;54;20808;31
2023/03/01 12:13:26;;;;;;;12.80;7.88;;;7.80;86.50;;;;;;2603827;54;20022;31
2023/03/01 12:16:10;;;;;;;10.77;8.00;;;7.60;86.00;;;;;;2603734;54;20026;31
2023/03/01 12:19:08;;;;;;;14.10;9.45;;;7.60;86.90;;;;;;2603880;54;20870;31
2023/03/01 12:21:50;;;;;;;14.05;9.00;;;7.40;87.90;;;;;;2603511;54;20899;31
2023/03/01 12:24:51;;;;;;;16.50;10.45;;;7.30;89.60;;;;;;2603592;54;20108;31
2023/03/01 12:27:42;;;;;;;16.70;10.48;;;7.30;90.20;;;;;;2603365;54;20915;31
2023/03/01 12:32:58;;;;;;;20.05;12.30;;;7.30;91.90;;;;;;2621946;46;19934;31
2023/03/01 12:36:09;;;;;;;20.88;12.65;;;7.20;92.10;;;;;;2602969;54;20022;31
2023/03/01 12:38:51;;;;;;;18.58;12.02;;;7.10;92.20;;;;;;2603878;54;20846;31
2023/03/01 12:41:33;;;;;;;19.98;14.30;;;7.10;92.30;;;;;;2603713;54;20027;31
2023/03/01 12:44:21;;;;;;;18.00;11.30;;;7.10;91.90;;;;;;2603528;54;20903;31
2023/03/01 12:47:07;;;;;;;14.93;11.07;;;7.10;91.70;;;;;;2602937;54;21688;31
2023/03/01 12:49:54;;;;;;;16.30;10.52;;;7.10;91.40;;;;;;2602890;54;20038;31
2023/03/01 12:52:38;;;;;;;12.43;8.07;;;7.10;91.20;;;;;;2603324;54;20905;31
2023/03/01 12:55:22;;;;;;;16.02;9.35;;;7.10;90.00;;;;;;2603683;54;20867;31
2023/03/01 12:58:09;;;;;;;14.82;9.98;;;7.00;90.80;;;;;;2603738;54;20027;31
2023/03/01 13:01:14;;;;;;;12.35;9.40;;;7.00;91.80;;;;;;2603657;54;20022;31
2023/03/01 13:04:02;;;;;;;15.30;9.15;;;7.00;90.00;;;;;;2603319;54;20029;31
2023/03/01 13:06:41;;;;;;;14.30;9.15;;;6.90;89.90;;;;;;2603750;54;20027;31
2023/03/01 13:09:28;;;;;;;18.33;10.70;;;6.80;89.30;;;;;;2621911;46;20034;31
2023/03/01 13:12:06;;;;;;;15.00;9.90;;;6.80;91.10;;;;;;2621946;46;20797;31
2023/03/01 13:17:46;;;;;;;13.98;9.32;;;6.80;91.30;;;;;;2603646;54;20883;31
2023/03/01 13:23:04;;;;;;;17.38;9.82;;;6.80;90.50;;;;;;2621691;46;20153;31
2023/03/01 13:26:05;;;;;;;20.48;11.38;;;6.80;90.80;;;;;;2603639;54;20026;31
2023/03/01 13:28:55;;;;;;;21.48;11.20;;;6.80;92.10;;;;;;2603652;54;20078;31
2023/03/01 13:32:04;;;;;;;22.58;11.15;;;6.70;92.30;;;;;;2621964;46;20028;31
2023/03/01 13:34:46;;;;;;;17.45;11.55;;;6.60;92.50;;;;;;2603123;54;20027;31
2023/03/01 13:37:41;;;;;;;19.50;11.43;;;6.60;92.30;;;;;;2603456;54;25131;31
2023/03/01 13:40:47;;;;;;;13.32;9.05;;;6.60;92.90;;;;;;2603541;54;20112;31
2023/03/01 13:43:33;;;;;;;16.85;10.77;;;6.60;92.40;;;;;;2603403;54;20029;31
2023/03/01 13:46:14;;;;;;;16.75;11.45;;;6.60;92.50;;;;;;2622198;46;20031;31
2023/03/01 13:48:53;;;;;;;22.92;12.35;;;6.60;92.80;;;;;;2603390;54;20686;31
2023/03/01 13:51:35;;;;;;;19.05;11.35;;;6.60;92.80;;;;;;2603399;54;20037;31
2023/03/01 13:54:17;;;;;;;20.23;12.00;;;6.60;93.10;;;;;;2603320;54;20761;31
2023/03/01 13:56:59;;;;;;;22.63;12.37;;;6.50;93.20;;;;;;2621938;46;20810;31
2023/03/01 13:59:34;;;;;;;17.67;11.57;;;6.60;94.30;;;;;;2621740;46;20054;31
2023/03/01 14:02:19;;;;;;;17.70;11.55;;;6.60;93.80;;;;;;2603620;54;19950;31
2023/03/01 14:05:00;;;;;;;17.88;11.55;;;6.60;93.80;;;;;;2621607;46;20038;31
2023/03/01 14:07:43;;;;;;;19.48;12.20;;;6.60;93.90;;;;;;2603337;54;20873;31
2023/03/01 14:10:21;;;;;;;18.98;11.48;;;6.60;94.20;;;;;;2603345;54;20924;31
2023/03/01 14:13:00;;;;;;;20.70;12.30;;;6.60;94.00;;;;;;2603474;54;20061;31
2023/03/01 14:15:56;;;;;;;17.70;11.60;;;6.60;93.90;;;;;;2621803;46;20030;31
2023/03/01 14:18:36;;;;;;;18.70;12.03;;;6.60;94.10;;;;;;2621928;46;20033;31
2023/03/01 14:21:10;;;;;;;20.30;13.07;;;6.50;94.40;;;;;;2603291;54;19941;31
2023/03/01 14:23:54;;;;;;;19.33;11.30;;;6.60;94.30;;;;;;2621189;46;20034;31
2023/03/01 14:26:35;;;;;;;18.73;11.50;;;6.60;94.60;;;;;;2712882;39;22378;31
2023/03/01 14:29:26;;;;;;;20.52;12.75;;;6.50;94.30;;;;;;2603609;54;20140;31
2023/03/01 14:34:40;;;;;;;19.55;12.50;;;6.50;95.00;;;;;;2621830;46;20093;31
2023/03/01 14:37:24;;;;;;;17.20;12.40;;;6.50;94.70;;;;;;2621240;46;20061;31
2023/03/01 14:40:24;;;;;;;20.58;13.10;;;6.40;95.00;;;;;;2602559;54;20955;31
2023/03/01 14:43:04;;;;;;;17.95;11.75;;;6.40;94.60;;;;;;2603260;54;20030;31
2023/03/01 14:45:39;;;;;;;24.35;12.45;;;6.40;94.90;;;;;;2621905;46;20030;31
2023/03/01 14:48:22;;;;;;;20.88;13.40;;;6.40;95.50;;;;;;2603264;54;20028;31
2023/03/01 14:50:59;;;;;;;15.68;11.65;;;6.40;95.00;;;;;;2602394;54;20772;31
2023/03/01 14:53:41;;;;;;;22.08;13.95;;;6.40;95.80;;;;;;2603175;54;20034;31
2023/03/01 14:56:31;;;;;;;21.98;14.25;;;6.40;95.90;;;;;;2603297;54;20046;31
2023/03/01 14:59:07;;;;;;;20.92;13.48;;;6.40;96.10;;;;;;2603183;54;20022;31
2023/03/01 15:01:45;;;;;;;20.40;12.52;;;6.30;96.30;;;;;;2603268;54;20050;31
2023/03/01 15:04:23;;;;;;;22.70;13.98;;;6.40;95.70;;;;;;2603358;54;20812;31
2023/03/01 15:07:04;;;;;;;17.95;12.73;;;6.30;95.00;;;;;;2603127;54;20026;31
2023/03/01 15:09:40;;;;;;;17.55;11.55;;;6.30;95.10;;;;;;2602606;54;20034;31
2023/03/01 15:12:35;;;;;;;;;;;6.30;95.90;;;;;;2602770;54;20888;31
2023/03/01 15:15:35;;;;;;;18.58;12.63;;;6.30;96.00;;;;;;2621690;46;19938;31
2023/03/01 15:18:18;;;;;;;18.70;12.05;;;6.30;95.50;;;;;;2603145;54;20030;31
2023/03/01 15:20:54;;;;;;;18.38;13.30;;;6.20;95.70;;;;;;2603354;54;20845;31
2023/03/01 15:23:34;;;;;;;15.63;10.73;;;6.20;96.30;;;;;;2621132;46;20913;31
2023/03/01 15:26:24;;;;;;;18.98;12.57;;;6.20;96.40;;;;;;2621356;46;20057;31
2023/03/01 15:29:03;;;;;;;17.37;11.03;;;6.20;95.90;;;;;;2604824;54;19961;31
2023/03/01 15:31:52;;;;;;;18.77;12.18;;;6.20;96.00;;;;;;2604902;54;20108;31
2023/03/01 15:34:31;;;;;;;18.90;11.97;;;6.20;96.10;;;;;;2604910;54;20100;31
2023/03/01 15:37:44;;;;;;;20.27;13.60;;;6.20;96.10;;;;;;2623039;46;20048;31
2023/03/01 15:40:24;;;;;;;26.90;16.57;;;6.10;97.60;;;;;;2623395;46;20835;31
2023/03/01 15:43:04;;;;;;;21.65;15.48;;;6.00;98.20;;;;;;2604867;54;20571;31
2023/03/01 15:45:45;;;;;;;23.08;14.38;;;6.00;99.00;;;;;;2623458;46;20869;31
2023/03/01 15:51:14;;;;;;;24.70;15.88;;;5.90;99.90;;;;;;2604752;54;20030;31
2023/03/01 15:53:57;;;;;;;27.58;16.75;;;5.80;99.90;;;;;;2604747;54;20057;31
2023/03/01 15:56:37;;;;;;;26.08;15.93;;;5.80;99.90;;;;;;2623362;46;20027;31
2023/03/01 15:59:18;;;;;;;29.20;17.55;;;5.70;99.90;;;;;;2623538;46;20029;31
2023/03/01 16:04:56;;;;;;;25.85;17.45;;;5.60;99.90;;;;;;2604641;54;20033;31
2023/03/01 16:07:33;;;;;;;24.40;15.93;;;5.60;99.90;;;;;;2623486;46;20057;31
2023/03/01 16:13:09;;;;;;;21.58;13.93;;;5.50;99.90;;;;;;2623230;46;20903;31
2023/03/01 16:15:52;;;;;;;23.53;14.77;;;5.40;99.90;;;;;;2603718;54;20034;31
2023/03/01 16:18:38;;;;;;;27.60;15.43;;;5.30;99.90;;;;;;2604016;54;20832;31
2023/03/01 16:21:20;;;;;;;28.50;17.40;;;5.30;99.90;;;;;;2604583;54;20328;31
2023/03/01 16:23:57;;;;;;;27.17;18.00;;;5.30;99.90;;;;;;2623081;46;20049;31
2023/03/01 16:26:37;;;;;;;34.22;25.42;;;5.30;99.90;;;;;;2604750;54;20031;31
2023/03/01 16:29:33;;;;;;;33.30;21.10;;;5.20;99.90;;;;;;2604513;54;20030;31
2023/03/01 16:32:15;;;;;;;28.00;18.70;;;5.10;99.90;;;;;;2604563;54;20328;31
2023/03/01 16:34:58;;;;;;;31.50;21.60;;;5.10;99.90;;;;;;2603936;54;20865;31
2023/03/01 16:37:38;;;;;;;40.72;24.38;;;5.00;99.90;;;;;;2603428;54;20081;31
2023/03/01 16:43:19;;;;;;;48.95;30.08;;;4.90;99.90;;;;;;2603804;54;20026;31
2023/03/01 16:45:54;;;;;;;48.05;29.50;;;4.80;99.90;;;;;;2603571;54;20034;31
2023/03/01 16:48:29;;;;;;;57.15;32.75;;;4.60;99.90;;;;;;2603576;54;20847;31
2023/03/01 16:51:07;;;;;;;76.07;40.83;;;4.60;99.90;;;;;;2603746;54;20271;31
2023/03/01 16:53:43;;;;;;;73.53;39.50;;;4.60;99.90;;;;;;2603524;54;20086;31
2023/03/01 16:56:22;;;;;;;65.07;34.38;;;4.50;99.90;;;;;;2603508;54;20049;31
2023/03/01 16:58:58;;;;;;;60.43;31.90;;;4.40;99.90;;;;;;2603568;54;20030;31
2023/03/01 17:01:37;;;;;;;48.63;29.95;;;4.40;99.90;;;;;;2603520;54;21107;31
2023/03/01 17:04:14;;;;;;;56.80;30.88;;;4.30;99.90;;;;;;2603470;54;20912;31
2023/03/01 17:06:55;;;;;;;51.90;27.67;;;4.30;99.90;;;;;;2603449;54;20827;31
2023/03/01 17:09:36;;;;;;;62.30;34.65;;;4.20;99.90;;;;;;2603493;54;20027;31
2023/03/01 17:12:12;;;;;;;74.57;37.05;;;4.20;99.90;;;;;;2603728;54;20048;31
2023/03/01 17:15:04;;;;;;;71.05;37.67;;;4.10;99.90;;;;;;2603398;54;20031;31
2023/03/01 17:17:43;;;;;;;65.45;34.97;;;4.00;99.90;;;;;;2621372;46;20019;31
2023/03/01 17:20:21;;;;;;;82.80;44.00;;;4.00;99.90;;;;;;2621704;46;20122;31
2023/03/01 17:23:00;;;;;;;77.55;40.20;;;3.90;99.90;;;;;;2603498;54;20144;31
2023/03/01 17:25:36;;;;;;;78.00;40.25;;;3.90;99.90;;;;;;2622083;46;20030;31
2023/03/01 17:28:13;;;;;;;74.85;40.45;;;3.90;99.90;;;;;;2603709;54;20824;31
2023/03/01 17:30:49;;;;;;;78.20;40.88;;;3.80;99.90;;;;;;2603319;54;20034;31
2023/03/01 17:33:24;;;;;;;71.10;40.20;;;3.70;99.90;;;;;;2617288;46;20041;31
2023/03/01 17:35:59;;;;;;;96.20;46.13;;;3.70;99.90;;;;;;2603288;54;20026;31
2023/03/01 17:38:38;;;;;;;88.65;43.25;;;3.60;99.90;;;;;;2603517;54;20912;31
2023/03/01 17:41:14;;;;;;;83.57;43.17;;;3.50;99.90;;;;;;2621485;46;20089;31
2023/03/01 17:43:50;;;;;;;76.65;40.28;;;3.50;99.90;;;;;;2603469;54;20046;31
2023/03/01 17:46:23;;;;;;;87.00;45.90;;;3.50;99.90;;;;;;2602720;54;22441;31
2023/03/01 17:48:59;;;;;;;83.30;42.13;;;3.40;99.90;;;;;;2603640;54;20101;31
2023/03/01 17:51:34;;;;;;;91.80;47.33;;;3.30;99.90;;;;;;2621519;46;20023;31
2023/03/01 17:54:15;;;;;;;100.57;54.33;;;3.30;99.90;;;;;;2603490;54;20023;31
2023/03/01 17:56:59;;;;;;;99.87;51.70;;;3.20;99.90;;;;;;2621905;46;20050;31
2023/03/01 18:02:17;;;;;;;109.88;56.10;;;3.00;99.90;;;;;;2603227;54;20026;31
2023/03/01 18:04:52;;;;;;;125.25;67.88;;;2.90;99.90;;;;;;2622085;46;20029;31
2023/03/01 18:07:38;;;;;;;129.30;69.78;;;2.90;99.90;;;;;;2603446;54;20901;31
2023/03/01 18:10:18;;;;;;;128.13;66.30;;;2.80;99.90;;;;;;2603496;54;20107;31
2023/03/01 18:12:59;;;;;;;152.02;75.47;;;2.70;99.90;;;;;;2622059;46;20138;31
2023/03/01 18:15:35;;;;;;;181.60;93.80;;;2.70;99.90;;;;;;2603260;54;20922;31
2023/03/01 18:18:22;;;;;;;160.48;80.80;;;2.60;99.90;;;;;;2603292;54;20242;31
2023/03/01 18:33:11;;;;;;;152.27;76.10;;;2.20;99.90;;;;;;2610497;54;20510;31
2023/03/01 18:35:50;;;;;;;127.47;65.97;;;2.10;99.90;;;;;;2603317;54;20907;31
2023/03/01 18:38:38;;;;;;;131.43;68.43;;;2.00;99.90;;;;;;2621677;46;20081;31
2023/03/01 18:41:16;;;;;;;122.40;63.55;;;1.90;99.90;;;;;;2603200;54;20922;31
2023/03/01 18:43:58;;;;;;;128.97;67.57;;;1.80;99.90;;;;;;2603300;54;20048;31
2023/03/01 18:46:37;;;;;;;123.90;64.43;;;1.80;99.90;;;;;;2603055;54;20023;31
2023/03/01 18:49:19;;;;;;;113.75;58.85;;;1.70;99.90;;;;;;2621217;46;20867;31
2023/03/01 18:51:58;;;;;;;106.47;55.22;;;1.70;99.90;;;;;;2602984;54;20026;31
2023/03/01 18:54:38;;;;;;;104.97;53.72;;;1.60;99.90;;;;;;2621446;46;20089;31
2023/03/01 18:57:15;;;;;;;105.57;55.05;;;1.60;99.90;;;;;;2603072;54;20904;31
2023/03/01 18:59:53;;;;;;;105.57;54.53;;;1.60;99.90;;;;;;2603383;54;20026;31
2023/03/01 19:02:33;;;;;;;101.77;53.57;;;1.60;99.90;;;;;;2602793;54;20037;31
2023/03/01 19:05:16;;;;;;;97.05;49.78;;;1.50;99.90;;;;;;2603202;54;20101;31
2023/03/01 19:07:58;;;;;;;87.97;47.67;;;1.50;99.90;;;;;;2602391;54;20972;31
2023/03/01 19:10:38;;;;;;;101.93;51.70;;;1.40;99.90;;;;;;2602942;54;20087;31
2023/03/01 19:13:17;;;;;;;99.03;51.22;;;1.40;99.90;;;;;;2621477;46;20253;31
2023/03/01 19:15:54;;;;;;;102.13;50.35;;;1.30;99.90;;;;;;2603116;54;20034;31
2023/03/01 19:18:34;;;;;;;94.00;47.90;;;1.20;99.90;;;;;;2602986;54;20030;31
2023/03/01 19:24:04;;;;;;;93.50;53.80;;;1.10;99.90;;;;;;2602253;54;20042;31
2023/03/01 19:26:43;;;;;;;93.40;51.60;;;1.00;99.90;;;;;;2612100;46;20736;31
2023/03/01 19:29:25;;;;;;;94.72;50.05;;;1.00;99.90;;;;;;2603291;54;20027;31
2023/03/01 19:32:05;;;;;;;82.07;46.60;;;1.00;99.90;;;;;;2602961;54;20836;31
2023/03/01 19:37:42;;;;;;;78.80;42.30;;;0.90;99.90;;;;;;2602371;54;20034;31
2023/03/01 19:40:24;;;;;;;79.30;42.97;;;0.90;99.90;;;;;;2603082;54;20068;31
2023/03/01 19:46:05;;;;;;;71.45;38.60;;;0.80;99.90;;;;;;2603109;54;20034;31
2023/03/01 19:48:43;;;;;;;83.82;44.53;;;0.70;99.90;;;;;;2610408;47;20031;31